sensor_id;sensor_type;location;lat;lon;timestamp;P1;durP1;ratioP1;P2;durP2;ratioP2
2662;SDS011;49701;48.072;7.800;2022-09-19T00:01:23;2.05;;;0.35;;
2662;SDS011;49701;48.072;7.800;2022-09-19T00:03:51;1.57;;;0.40;;
2662;SDS011;49701;48.072;7.800;2022-09-19T00:06:18;1.45;;;0.30;;
2662;SDS011;49701;48.072;7.800;2022-09-19T00:08:46;0.47;;;0.30;;
2662;SDS011;49701;48.072;7.800;2022-09-19T00:11:12;1.35;;;0.40;;
2662;SDS011;49701;48.072;7.800;2022-09-19T00:13:39;2.35;;;0.40;;
2662;SDS011;49701;48.072;7.800;2022-09-19T00:16:11;1.95;;;0.50;;
2662;SDS011;49701;48.072;7.800;2022-09-19T00:18:37;1.40;;;0.30;;
2662;SDS011;49701;48.072;7.800;2022-09-19T00:21:03;0.63;;;0.30;;
2662;SDS011;49701;48.072;7.800;2022-09-19T00:23:29;2.05;;;0.40;;
2662;SDS011;49701;48.072;7.800;2022-09-19T00:26:13;1.65;;;0.22;;
2662;SDS011;49701;48.072;7.800;2022-09-19T00:28:43;2.55;;;0.40;;
2662;SDS011;49701;48.072;7.800;2022-09-19T00:31:16;1.17;;;0.30;;
2662;SDS011;49701;48.072;7.800;2022-09-19T00:33:44;0.30;;;0.30;;
2662;SDS011;49701;48.072;7.800;2022-09-19T00:36:11;0.77;;;0.15;;
2662;SDS011;49701;48.072;7.800;2022-09-19T00:38:37;1.73;;;0.40;;
2662;SDS011;49701;48.072;7.800;2022-09-19T00:41:03;1.75;;;0.30;;
2662;SDS011;49701;48.072;7.800;2022-09-19T00:46:09;2.53;;;0.30;;
2662;SDS011;49701;48.072;7.800;2022-09-19T00:48:35;0.95;;;0.30;;
2662;SDS011;49701;48.072;7.800;2022-09-19T00:51:06;2.08;;;0.57;;
2662;SDS011;49701;48.072;7.800;2022-09-19T00:53:36;0.50;;;0.30;;
2662;SDS011;49701;48.072;7.800;2022-09-19T00:56:02;1.65;;;0.50;;
2662;SDS011;49701;48.072;7.800;2022-09-19T00:58:36;0.35;;;0.28;;
2662;SDS011;49701;48.072;7.800;2022-09-19T01:01:05;0.63;;;0.20;;
2662;SDS011;49701;48.072;7.800;2022-09-19T01:03:30;3.67;;;0.60;;
2662;SDS011;49701;48.072;7.800;2022-09-19T01:14:16;0.77;;;0.30;;
2662;SDS011;49701;48.072;7.800;2022-09-19T01:16:51;0.45;;;0.30;;
2662;SDS011;49701;48.072;7.800;2022-09-19T01:19:29;0.75;;;0.20;;
2662;SDS011;49701;48.072;7.800;2022-09-19T01:25:31;0.93;;;0.40;;
2662;SDS011;49701;48.072;7.800;2022-09-19T01:31:06;1.00;;;0.30;;
2662;SDS011;49701;48.072;7.800;2022-09-19T01:33:46;0.40;;;0.30;;
2662;SDS011;49701;48.072;7.800;2022-09-19T01:36:32;2.00;;;0.40;;
2662;SDS011;49701;48.072;7.800;2022-09-19T01:39:02;3.13;;;0.20;;
2662;SDS011;49701;48.072;7.800;2022-09-19T01:41:31;2.20;;;0.40;;
2662;SDS011;49701;48.072;7.800;2022-09-19T01:44:00;1.15;;;0.35;;
2662;SDS011;49701;48.072;7.800;2022-09-19T01:49:14;2.28;;;0.47;;
2662;SDS011;49701;48.072;7.800;2022-09-19T01:51:51;1.35;;;0.45;;
2662;SDS011;49701;48.072;7.800;2022-09-19T01:59:41;0.77;;;0.40;;
2662;SDS011;49701;48.072;7.800;2022-09-19T02:02:28;1.08;;;0.32;;
2662;SDS011;49701;48.072;7.800;2022-09-19T02:10:52;0.30;;;0.30;;
2662;SDS011;49701;48.072;7.800;2022-09-19T02:13:40;0.82;;;0.35;;
2662;SDS011;49701;48.072;7.800;2022-09-19T02:16:11;1.50;;;0.50;;
2662;SDS011;49701;48.072;7.800;2022-09-19T02:18:57;1.80;;;0.38;;
2662;SDS011;49701;48.072;7.800;2022-09-19T02:21:34;1.08;;;0.30;;
2662;SDS011;49701;48.072;7.800;2022-09-19T02:24:07;3.55;;;0.40;;
2662;SDS011;49701;48.072;7.800;2022-09-19T02:26:39;0.35;;;0.32;;
2662;SDS011;49701;48.072;7.800;2022-09-19T02:29:06;0.50;;;0.50;;
2662;SDS011;49701;48.072;7.800;2022-09-19T02:31:37;2.75;;;0.70;;
2662;SDS011;49701;48.072;7.800;2022-09-19T02:34:04;1.00;;;0.40;;
2662;SDS011;49701;48.072;7.800;2022-09-19T02:36:50;1.33;;;0.50;;
2662;SDS011;49701;48.072;7.800;2022-09-19T02:39:22;2.17;;;0.40;;
2662;SDS011;49701;48.072;7.800;2022-09-19T02:42:04;1.33;;;0.38;;
2662;SDS011;49701;48.072;7.800;2022-09-19T02:45:10;0.68;;;0.20;;
2662;SDS011;49701;48.072;7.800;2022-09-19T02:53:15;3.05;;;0.47;;
2662;SDS011;49701;48.072;7.800;2022-09-19T02:55:52;1.10;;;0.40;;
2662;SDS011;49701;48.072;7.800;2022-09-19T02:58:21;1.23;;;0.40;;
2662;SDS011;49701;48.072;7.800;2022-09-19T03:00:51;2.50;;;0.40;;
2662;SDS011;49701;48.072;7.800;2022-09-19T03:03:26;2.08;;;0.85;;
2662;SDS011;49701;48.072;7.800;2022-09-19T03:06:14;1.83;;;0.63;;
2662;SDS011;49701;48.072;7.800;2022-09-19T03:08:43;1.23;;;0.77;;
2662;SDS011;49701;48.072;7.800;2022-09-19T03:11:10;2.85;;;0.60;;
2662;SDS011;49701;48.072;7.800;2022-09-19T03:13:41;1.45;;;0.40;;
2662;SDS011;49701;48.072;7.800;2022-09-19T03:16:12;3.70;;;0.52;;
2662;SDS011;49701;48.072;7.800;2022-09-19T03:18:40;2.22;;;0.43;;
2662;SDS011;49701;48.072;7.800;2022-09-19T03:21:09;2.25;;;0.57;;
2662;SDS011;49701;48.072;7.800;2022-09-19T03:23:45;0.43;;;0.30;;
2662;SDS011;49701;48.072;7.800;2022-09-19T03:26:16;1.67;;;0.38;;
2662;SDS011;49701;48.072;7.800;2022-09-19T03:28:45;3.42;;;0.50;;
2662;SDS011;49701;48.072;7.800;2022-09-19T03:31:10;4.53;;;0.70;;
2662;SDS011;49701;48.072;7.800;2022-09-19T03:33:36;1.20;;;0.43;;
2662;SDS011;49701;48.072;7.800;2022-09-19T03:36:02;1.42;;;0.38;;
2662;SDS011;49701;48.072;7.800;2022-09-19T03:38:33;1.38;;;0.50;;
2662;SDS011;49701;48.072;7.800;2022-09-19T03:41:00;0.80;;;0.40;;
2662;SDS011;49701;48.072;7.800;2022-09-19T03:43:26;2.53;;;0.77;;
2662;SDS011;49701;48.072;7.800;2022-09-19T03:45:53;1.45;;;0.57;;
2662;SDS011;49701;48.072;7.800;2022-09-19T03:48:18;0.63;;;0.50;;
2662;SDS011;49701;48.072;7.800;2022-09-19T03:50:46;0.55;;;0.50;;
2662;SDS011;49701;48.072;7.800;2022-09-19T03:53:12;2.58;;;0.45;;
2662;SDS011;49701;48.072;7.800;2022-09-19T03:55:38;3.03;;;0.40;;
2662;SDS011;49701;48.072;7.800;2022-09-19T03:58:05;1.98;;;0.55;;
2662;SDS011;49701;48.072;7.800;2022-09-19T04:00:31;1.73;;;0.50;;
2662;SDS011;49701;48.072;7.800;2022-09-19T04:02:57;2.92;;;0.60;;
2662;SDS011;49701;48.072;7.800;2022-09-19T04:05:22;2.42;;;0.60;;
2662;SDS011;49701;48.072;7.800;2022-09-19T04:07:48;1.05;;;0.55;;
2662;SDS011;49701;48.072;7.800;2022-09-19T04:10:13;1.30;;;0.50;;
2662;SDS011;49701;48.072;7.800;2022-09-19T04:12:40;2.10;;;0.50;;
2662;SDS011;49701;48.072;7.800;2022-09-19T04:15:06;3.30;;;0.65;;
2662;SDS011;49701;48.072;7.800;2022-09-19T04:17:32;1.45;;;0.65;;
2662;SDS011;49701;48.072;7.800;2022-09-19T04:19:58;4.00;;;0.68;;
2662;SDS011;49701;48.072;7.800;2022-09-19T04:22:24;1.52;;;0.60;;
2662;SDS011;49701;48.072;7.800;2022-09-19T04:24:49;0.95;;;0.52;;
2662;SDS011;49701;48.072;7.800;2022-09-19T04:27:16;2.47;;;0.50;;
2662;SDS011;49701;48.072;7.800;2022-09-19T04:29:41;3.78;;;0.73;;
2662;SDS011;49701;48.072;7.800;2022-09-19T04:32:07;0.75;;;0.50;;
2662;SDS011;49701;48.072;7.800;2022-09-19T04:34:33;1.95;;;0.40;;
2662;SDS011;49701;48.072;7.800;2022-09-19T04:36:59;1.33;;;0.68;;
2662;SDS011;49701;48.072;7.800;2022-09-19T04:39:27;1.95;;;0.47;;
2662;SDS011;49701;48.072;7.800;2022-09-19T04:41:53;3.35;;;0.60;;
2662;SDS011;49701;48.072;7.800;2022-09-19T04:44:19;2.30;;;0.57;;
2662;SDS011;49701;48.072;7.800;2022-09-19T04:46:53;1.25;;;0.60;;
2662;SDS011;49701;48.072;7.800;2022-09-19T04:49:19;1.50;;;0.55;;
2662;SDS011;49701;48.072;7.800;2022-09-19T04:51:45;2.20;;;0.50;;
2662;SDS011;49701;48.072;7.800;2022-09-19T04:54:11;1.05;;;0.93;;
2662;SDS011;49701;48.072;7.800;2022-09-19T04:56:37;3.03;;;0.52;;
2662;SDS011;49701;48.072;7.800;2022-09-19T04:59:03;2.30;;;0.70;;
2662;SDS011;49701;48.072;7.800;2022-09-19T05:01:29;3.50;;;1.10;;
2662;SDS011;49701;48.072;7.800;2022-09-19T05:03:56;3.20;;;0.85;;
2662;SDS011;49701;48.072;7.800;2022-09-19T05:06:22;3.50;;;0.80;;
2662;SDS011;49701;48.072;7.800;2022-09-19T05:08:48;3.97;;;0.98;;
2662;SDS011;49701;48.072;7.800;2022-09-19T05:11:16;4.53;;;0.90;;
2662;SDS011;49701;48.072;7.800;2022-09-19T05:13:43;2.22;;;0.60;;
2662;SDS011;49701;48.072;7.800;2022-09-19T05:16:09;2.42;;;0.80;;
2662;SDS011;49701;48.072;7.800;2022-09-19T05:18:38;4.90;;;0.80;;
2662;SDS011;49701;48.072;7.800;2022-09-19T05:21:05;2.88;;;0.80;;
2662;SDS011;49701;48.072;7.800;2022-09-19T05:23:38;1.73;;;0.60;;
2662;SDS011;49701;48.072;7.800;2022-09-19T05:26:06;6.60;;;1.20;;
2662;SDS011;49701;48.072;7.800;2022-09-19T05:28:34;0.60;;;0.50;;
2662;SDS011;49701;48.072;7.800;2022-09-19T05:31:01;1.40;;;0.63;;
2662;SDS011;49701;48.072;7.800;2022-09-19T05:33:31;1.30;;;0.55;;
2662;SDS011;49701;48.072;7.800;2022-09-19T05:35:58;6.88;;;0.70;;
2662;SDS011;49701;48.072;7.800;2022-09-19T05:38:25;3.47;;;1.00;;
2662;SDS011;49701;48.072;7.800;2022-09-19T05:40:55;3.83;;;0.95;;
2662;SDS011;49701;48.072;7.800;2022-09-19T05:43:22;2.33;;;1.00;;
2662;SDS011;49701;48.072;7.800;2022-09-19T05:45:52;2.38;;;0.90;;
2662;SDS011;49701;48.072;7.800;2022-09-19T05:48:19;1.55;;;0.60;;
2662;SDS011;49701;48.072;7.800;2022-09-19T05:50:45;2.60;;;0.80;;
2662;SDS011;49701;48.072;7.800;2022-09-19T05:53:12;3.70;;;1.63;;
2662;SDS011;49701;48.072;7.800;2022-09-19T05:55:57;2.08;;;1.17;;
2662;SDS011;49701;48.072;7.800;2022-09-19T05:58:23;8.43;;;1.48;;
2662;SDS011;49701;48.072;7.800;2022-09-19T06:00:50;14.57;;;2.17;;
2662;SDS011;49701;48.072;7.800;2022-09-19T06:03:16;4.82;;;1.50;;
2662;SDS011;49701;48.072;7.800;2022-09-19T06:05:43;3.17;;;1.10;;
2662;SDS011;49701;48.072;7.800;2022-09-19T06:08:11;0.95;;;0.85;;
2662;SDS011;49701;48.072;7.800;2022-09-19T06:10:38;5.63;;;1.00;;
2662;SDS011;49701;48.072;7.800;2022-09-19T06:13:12;7.22;;;1.20;;
2662;SDS011;49701;48.072;7.800;2022-09-19T06:15:41;1.05;;;0.80;;
2662;SDS011;49701;48.072;7.800;2022-09-19T06:18:07;3.72;;;0.85;;
2662;SDS011;49701;48.072;7.800;2022-09-19T06:20:35;1.92;;;0.90;;
2662;SDS011;49701;48.072;7.800;2022-09-19T06:23:02;2.58;;;0.90;;
2662;SDS011;49701;48.072;7.800;2022-09-19T06:25:30;2.58;;;0.93;;
2662;SDS011;49701;48.072;7.800;2022-09-19T06:27:57;4.88;;;1.05;;
2662;SDS011;49701;48.072;7.800;2022-09-19T06:30:25;0.73;;;0.60;;
2662;SDS011;49701;48.072;7.800;2022-09-19T06:32:51;6.03;;;1.25;;
2662;SDS011;49701;48.072;7.800;2022-09-19T06:35:18;3.22;;;0.80;;
2662;SDS011;49701;48.072;7.800;2022-09-19T06:37:45;4.57;;;1.05;;
2662;SDS011;49701;48.072;7.800;2022-09-19T06:40:12;3.13;;;1.08;;
2662;SDS011;49701;48.072;7.800;2022-09-19T16:17:24;2.13;;;0.70;;
2662;SDS011;49701;48.072;7.800;2022-09-19T16:20:29;9.07;;;0.77;;
2662;SDS011;49701;48.072;7.800;2022-09-19T16:23:38;5.38;;;0.75;;
2662;SDS011;49701;48.072;7.800;2022-09-19T16:33:37;3.00;;;0.57;;
2662;SDS011;49701;48.072;7.800;2022-09-19T16:36:11;1.65;;;0.70;;
2662;SDS011;49701;48.072;7.800;2022-09-19T16:39:25;6.53;;;1.40;;
2662;SDS011;49701;48.072;7.800;2022-09-19T16:46:45;44.85;;;5.28;;
2662;SDS011;49701;48.072;7.800;2022-09-19T16:49:12;24.08;;;2.78;;
2662;SDS011;49701;48.072;7.800;2022-09-19T16:51:38;17.75;;;1.70;;
2662;SDS011;49701;48.072;7.800;2022-09-19T16:54:04;15.00;;;1.48;;
2662;SDS011;49701;48.072;7.800;2022-09-19T16:56:36;7.38;;;1.00;;
2662;SDS011;49701;48.072;7.800;2022-09-19T16:59:11;9.70;;;0.90;;
2662;SDS011;49701;48.072;7.800;2022-09-19T17:01:42;6.20;;;0.68;;
2662;SDS011;49701;48.072;7.800;2022-09-19T17:04:09;12.00;;;1.35;;
2662;SDS011;49701;48.072;7.800;2022-09-19T17:06:39;4.80;;;0.85;;
2662;SDS011;49701;48.072;7.800;2022-09-19T17:09:04;4.90;;;0.75;;
2662;SDS011;49701;48.072;7.800;2022-09-19T17:11:30;7.03;;;0.68;;
2662;SDS011;49701;48.072;7.800;2022-09-19T17:13:56;6.65;;;0.95;;
2662;SDS011;49701;48.072;7.800;2022-09-19T17:16:22;3.63;;;0.70;;
2662;SDS011;49701;48.072;7.800;2022-09-19T17:18:48;7.65;;;0.95;;
2662;SDS011;49701;48.072;7.800;2022-09-19T17:21:14;7.25;;;0.73;;
2662;SDS011;49701;48.072;7.800;2022-09-19T17:23:43;5.43;;;1.00;;
2662;SDS011;49701;48.072;7.800;2022-09-19T17:26:10;4.05;;;0.70;;
2662;SDS011;49701;48.072;7.800;2022-09-19T17:28:36;14.85;;;1.30;;
2662;SDS011;49701;48.072;7.800;2022-09-19T17:31:04;5.57;;;1.00;;
2662;SDS011;49701;48.072;7.800;2022-09-19T17:33:30;6.07;;;0.90;;
2662;SDS011;49701;48.072;7.800;2022-09-19T17:35:57;3.47;;;0.70;;
2662;SDS011;49701;48.072;7.800;2022-09-19T17:38:25;2.65;;;1.05;;
2662;SDS011;49701;48.072;7.800;2022-09-19T17:40:51;5.70;;;1.10;;
2662;SDS011;49701;48.072;7.800;2022-09-19T17:43:17;7.30;;;1.05;;
2662;SDS011;49701;48.072;7.800;2022-09-19T17:45:45;11.52;;;1.25;;
2662;SDS011;49701;48.072;7.800;2022-09-19T17:48:13;4.30;;;0.70;;
2662;SDS011;49701;48.072;7.800;2022-09-19T17:50:40;7.22;;;1.00;;
2662;SDS011;49701;48.072;7.800;2022-09-19T17:53:07;4.70;;;0.90;;
2662;SDS011;49701;48.072;7.800;2022-09-19T17:55:32;6.25;;;1.20;;
2662;SDS011;49701;48.072;7.800;2022-09-19T17:57:58;4.57;;;0.95;;
2662;SDS011;49701;48.072;7.800;2022-09-19T18:00:24;3.88;;;1.00;;
2662;SDS011;49701;48.072;7.800;2022-09-19T18:02:50;6.22;;;0.88;;
2662;SDS011;49701;48.072;7.800;2022-09-19T18:08:00;5.78;;;1.00;;
2662;SDS011;49701;48.072;7.800;2022-09-19T18:10:27;9.63;;;1.05;;
2662;SDS011;49701;48.072;7.800;2022-09-19T18:12:55;6.10;;;0.98;;
2662;SDS011;49701;48.072;7.800;2022-09-19T18:15:28;8.77;;;2.30;;
2662;SDS011;49701;48.072;7.800;2022-09-19T18:22:48;5.03;;;1.25;;
2662;SDS011;49701;48.072;7.800;2022-09-19T18:25:14;4.80;;;1.20;;
2662;SDS011;49701;48.072;7.800;2022-09-19T18:27:42;9.73;;;1.30;;
2662;SDS011;49701;48.072;7.800;2022-09-19T18:30:13;6.30;;;1.00;;
2662;SDS011;49701;48.072;7.800;2022-09-19T18:32:44;5.30;;;1.02;;
2662;SDS011;49701;48.072;7.800;2022-09-19T18:35:12;5.32;;;1.33;;
2662;SDS011;49701;48.072;7.800;2022-09-19T18:37:39;4.75;;;1.15;;
2662;SDS011;49701;48.072;7.800;2022-09-19T18:40:05;3.65;;;1.40;;
2662;SDS011;49701;48.072;7.800;2022-09-19T18:42:34;4.70;;;1.80;;
2662;SDS011;49701;48.072;7.800;2022-09-19T18:45:00;4.70;;;1.80;;
2662;SDS011;49701;48.072;7.800;2022-09-19T19:11:44;3.95;;;1.52;;
2662;SDS011;49701;48.072;7.800;2022-09-19T19:14:10;5.60;;;1.70;;
2662;SDS011;49701;48.072;7.800;2022-09-19T19:16:35;5.07;;;1.80;;
2662;SDS011;49701;48.072;7.800;2022-09-19T19:19:02;6.25;;;2.10;;
2662;SDS011;49701;48.072;7.800;2022-09-19T19:21:30;6.28;;;1.10;;
2662;SDS011;49701;48.072;7.800;2022-09-19T19:24:01;4.03;;;1.40;;
2662;SDS011;49701;48.072;7.800;2022-09-19T19:26:29;4.75;;;1.40;;
2662;SDS011;49701;48.072;7.800;2022-09-19T19:28:56;6.85;;;1.25;;
2662;SDS011;49701;48.072;7.800;2022-09-19T19:31:22;3.38;;;1.10;;
2662;SDS011;49701;48.072;7.800;2022-09-19T19:33:48;4.70;;;1.20;;
2662;SDS011;49701;48.072;7.800;2022-09-19T19:36:15;4.88;;;1.10;;
2662;SDS011;49701;48.072;7.800;2022-09-19T19:38:43;8.10;;;1.52;;
2662;SDS011;49701;48.072;7.800;2022-09-19T19:41:11;3.65;;;1.33;;
2662;SDS011;49701;48.072;7.800;2022-09-19T19:43:39;6.65;;;1.30;;
2662;SDS011;49701;48.072;7.800;2022-09-19T19:46:04;2.95;;;1.20;;
2662;SDS011;49701;48.072;7.800;2022-09-19T19:48:31;3.22;;;1.30;;
2662;SDS011;49701;48.072;7.800;2022-09-19T19:50:58;3.92;;;1.10;;
2662;SDS011;49701;48.072;7.800;2022-09-19T19:53:26;6.90;;;1.40;;
2662;SDS011;49701;48.072;7.800;2022-09-19T19:55:59;5.60;;;1.40;;
2662;SDS011;49701;48.072;7.800;2022-09-19T19:58:27;6.05;;;1.33;;
2662;SDS011;49701;48.072;7.800;2022-09-19T20:05:56;5.15;;;1.13;;
2662;SDS011;49701;48.072;7.800;2022-09-19T20:08:22;2.80;;;1.15;;
2662;SDS011;49701;48.072;7.800;2022-09-19T20:10:54;4.80;;;1.48;;
2662;SDS011;49701;48.072;7.800;2022-09-19T20:13:21;7.88;;;3.10;;
2662;SDS011;49701;48.072;7.800;2022-09-19T20:16:03;7.38;;;2.25;;
2662;SDS011;49701;48.072;7.800;2022-09-19T20:18:30;7.15;;;3.08;;
2662;SDS011;49701;48.072;7.800;2022-09-19T20:21:02;4.70;;;1.58;;
2662;SDS011;49701;48.072;7.800;2022-09-19T20:23:38;4.63;;;1.63;;
2662;SDS011;49701;48.072;7.800;2022-09-19T20:26:05;5.95;;;1.63;;
2662;SDS011;49701;48.072;7.800;2022-09-19T20:28:31;3.90;;;1.70;;
2662;SDS011;49701;48.072;7.800;2022-09-19T20:31:05;4.18;;;1.70;;
2662;SDS011;49701;48.072;7.800;2022-09-19T20:35:58;6.40;;;2.30;;
2662;SDS011;49701;48.072;7.800;2022-09-19T20:38:24;8.10;;;2.00;;
2662;SDS011;49701;48.072;7.800;2022-09-19T20:40:57;3.42;;;1.90;;
2662;SDS011;49701;48.072;7.800;2022-09-19T20:43:26;6.22;;;1.80;;
2662;SDS011;49701;48.072;7.800;2022-09-19T20:48:29;8.00;;;2.17;;
2662;SDS011;49701;48.072;7.800;2022-09-19T20:50:56;5.00;;;1.90;;
2662;SDS011;49701;48.072;7.800;2022-09-19T20:53:30;4.50;;;1.95;;
2662;SDS011;49701;48.072;7.800;2022-09-19T20:56:07;2.97;;;1.60;;
2662;SDS011;49701;48.072;7.800;2022-09-19T20:58:35;3.60;;;1.45;;
2662;SDS011;49701;48.072;7.800;2022-09-19T21:01:19;5.30;;;1.80;;
2662;SDS011;49701;48.072;7.800;2022-09-19T21:03:46;3.10;;;1.50;;
2662;SDS011;49701;48.072;7.800;2022-09-19T21:06:12;3.38;;;1.55;;
2662;SDS011;49701;48.072;7.800;2022-09-19T21:08:38;3.47;;;1.30;;
2662;SDS011;49701;48.072;7.800;2022-09-19T21:11:05;5.47;;;1.90;;
2662;SDS011;49701;48.072;7.800;2022-09-19T21:13:36;4.88;;;1.50;;
2662;SDS011;49701;48.072;7.800;2022-09-19T21:16:03;5.28;;;1.27;;
2662;SDS011;49701;48.072;7.800;2022-09-19T21:18:31;4.22;;;1.33;;
2662;SDS011;49701;48.072;7.800;2022-09-19T21:20:57;5.45;;;1.33;;
2662;SDS011;49701;48.072;7.800;2022-09-19T21:23:27;6.57;;;1.52;;
2662;SDS011;49701;48.072;7.800;2022-09-19T21:26:04;2.33;;;0.98;;
2662;SDS011;49701;48.072;7.800;2022-09-19T21:28:41;5.22;;;1.10;;
2662;SDS011;49701;48.072;7.800;2022-09-19T21:31:11;4.80;;;1.45;;
2662;SDS011;49701;48.072;7.800;2022-09-19T21:33:38;3.10;;;1.35;;
2662;SDS011;49701;48.072;7.800;2022-09-19T21:36:05;4.50;;;1.20;;
2662;SDS011;49701;48.072;7.800;2022-09-19T21:38:31;6.18;;;1.10;;
2662;SDS011;49701;48.072;7.800;2022-09-19T21:43:28;3.08;;;1.25;;
2662;SDS011;49701;48.072;7.800;2022-09-19T21:46:00;3.38;;;1.23;;
2662;SDS011;49701;48.072;7.800;2022-09-19T21:48:34;3.08;;;1.35;;
2662;SDS011;49701;48.072;7.800;2022-09-19T21:51:01;5.00;;;1.48;;
2662;SDS011;49701;48.072;7.800;2022-09-19T21:53:29;3.60;;;1.10;;
2662;SDS011;49701;48.072;7.800;2022-09-19T21:55:56;4.70;;;1.70;;
2662;SDS011;49701;48.072;7.800;2022-09-19T21:58:23;2.70;;;1.27;;
2662;SDS011;49701;48.072;7.800;2022-09-19T22:00:50;5.93;;;1.25;;
2662;SDS011;49701;48.072;7.800;2022-09-19T22:03:16;3.22;;;1.38;;
2662;SDS011;49701;48.072;7.800;2022-09-19T22:05:42;3.78;;;1.20;;
2662;SDS011;49701;48.072;7.800;2022-09-19T22:08:09;2.45;;;1.10;;
2662;SDS011;49701;48.072;7.800;2022-09-19T22:10:36;6.28;;;1.35;;
2662;SDS011;49701;48.072;7.800;2022-09-19T22:13:02;6.78;;;1.50;;
2662;SDS011;49701;48.072;7.800;2022-09-19T22:15:27;4.50;;;1.10;;
2662;SDS011;49701;48.072;7.800;2022-09-19T22:17:53;4.60;;;1.30;;
2662;SDS011;49701;48.072;7.800;2022-09-19T22:20:19;3.95;;;1.17;;
2662;SDS011;49701;48.072;7.800;2022-09-19T22:22:45;4.30;;;1.23;;
2662;SDS011;49701;48.072;7.800;2022-09-19T22:25:10;3.05;;;1.20;;
2662;SDS011;49701;48.072;7.800;2022-09-19T22:27:36;2.28;;;1.17;;
2662;SDS011;49701;48.072;7.800;2022-09-19T22:30:03;5.13;;;1.38;;
2662;SDS011;49701;48.072;7.800;2022-09-19T22:32:29;2.58;;;0.95;;
2662;SDS011;49701;48.072;7.800;2022-09-19T22:34:55;4.38;;;1.27;;
2662;SDS011;49701;48.072;7.800;2022-09-19T22:37:21;6.70;;;1.33;;
2662;SDS011;49701;48.072;7.800;2022-09-19T22:39:46;5.90;;;1.42;;
2662;SDS011;49701;48.072;7.800;2022-09-19T22:42:12;6.65;;;1.63;;
2662;SDS011;49701;48.072;7.800;2022-09-19T22:44:37;5.05;;;1.90;;
2662;SDS011;49701;48.072;7.800;2022-09-19T22:47:03;3.33;;;0.98;;
2662;SDS011;49701;48.072;7.800;2022-09-19T22:49:29;3.75;;;1.17;;
2662;SDS011;49701;48.072;7.800;2022-09-19T22:51:54;5.95;;;1.40;;
2662;SDS011;49701;48.072;7.800;2022-09-19T22:54:20;2.30;;;0.90;;
2662;SDS011;49701;48.072;7.800;2022-09-19T22:56:46;5.68;;;1.25;;
2662;SDS011;49701;48.072;7.800;2022-09-19T22:59:11;7.57;;;1.42;;
2662;SDS011;49701;48.072;7.800;2022-09-19T23:01:37;5.40;;;1.58;;
2662;SDS011;49701;48.072;7.800;2022-09-19T23:04:04;6.72;;;1.33;;
2662;SDS011;49701;48.072;7.800;2022-09-19T23:06:36;2.85;;;1.30;;
2662;SDS011;49701;48.072;7.800;2022-09-19T23:09:09;5.60;;;1.38;;
2662;SDS011;49701;48.072;7.800;2022-09-19T23:11:38;2.40;;;1.27;;
2662;SDS011;49701;48.072;7.800;2022-09-19T23:14:05;6.30;;;1.33;;
2662;SDS011;49701;48.072;7.800;2022-09-19T23:16:36;4.65;;;1.58;;
2662;SDS011;49701;48.072;7.800;2022-09-19T23:19:04;5.50;;;1.25;;
2662;SDS011;49701;48.072;7.800;2022-09-19T23:21:44;5.95;;;1.33;;
2662;SDS011;49701;48.072;7.800;2022-09-19T23:24:12;5.63;;;1.52;;
2662;SDS011;49701;48.072;7.800;2022-09-19T23:26:40;5.32;;;1.63;;
2662;SDS011;49701;48.072;7.800;2022-09-19T23:29:05;3.30;;;1.30;;
2662;SDS011;49701;48.072;7.800;2022-09-19T23:31:31;5.13;;;1.40;;
2662;SDS011;49701;48.072;7.800;2022-09-19T23:33:57;4.90;;;1.20;;
2662;SDS011;49701;48.072;7.800;2022-09-19T23:36:23;4.97;;;1.40;;
2662;SDS011;49701;48.072;7.800;2022-09-19T23:38:49;3.28;;;1.17;;
2662;SDS011;49701;48.072;7.800;2022-09-19T23:41:17;4.72;;;1.38;;
2662;SDS011;49701;48.072;7.800;2022-09-19T23:43:44;4.05;;;1.20;;
2662;SDS011;49701;48.072;7.800;2022-09-19T23:46:11;5.95;;;1.13;;
2662;SDS011;49701;48.072;7.800;2022-09-19T23:48:37;3.38;;;1.40;;
2662;SDS011;49701;48.072;7.800;2022-09-19T23:51:03;9.38;;;1.30;;
2662;SDS011;49701;48.072;7.800;2022-09-19T23:53:32;3.72;;;1.33;;
2662;SDS011;49701;48.072;7.800;2022-09-19T23:55:59;6.13;;;1.13;;
2662;SDS011;49701;48.072;7.800;2022-09-19T23:58:25;7.55;;;1.48;;
